createdAt,value
2023-06-19T15:57:52.705Z,99952.63
2023-06-19T16:00:20.966Z,99956.89
2023-06-19T16:02:49.329Z,99957.55
2023-06-19T16:05:17.925Z,99957.40
2023-06-19T16:07:45.578Z,99957.98
2023-06-19T16:10:14.388Z,99963.90
2023-06-19T16:12:42.143Z,99958.79
2023-06-19T16:15:13.744Z,99962.62
2023-06-19T16:17:41.378Z,99965.51
2023-06-19T16:20:09.676Z,99962.65
2023-06-19T16:22:37.178Z,99965.70
2023-06-19T16:25:05.340Z,99960.24
2023-06-19T16:27:32.757Z,99963.23
2023-06-19T16:30:00.337Z,99962.95
2023-06-19T16:32:28.022Z,99962.73
2023-06-19T16:34:55.822Z,99967.42
2023-06-19T16:37:23.460Z,99968.02
2023-06-19T16:39:51.214Z,99970.46
2023-06-19T16:42:21.255Z,99966.27
2023-06-19T16:44:48.798Z,99968.48
2023-06-19T16:47:16.437Z,99968.73
2023-06-19T16:49:44.147Z,99966.02
2023-06-19T16:52:11.691Z,99964.13
2023-06-19T16:54:39.298Z,99966.20
2023-06-19T16:57:06.921Z,99968.11
2023-06-19T16:59:34.492Z,99964.79
2023-06-19T17:02:02.273Z,99969.48
2023-06-19T17:04:30.040Z,99965.21
2023-06-19T17:06:57.605Z,99966.90
2023-06-19T17:09:25.242Z,99969.44
2023-06-19T17:11:53.201Z,99968.02
2023-06-19T17:14:21.968Z,99964.43
2023-06-19T17:16:49.565Z,99960.25
2023-06-19T17:19:17.532Z,99964.35
2023-06-19T17:21:45.109Z,99963.90
2023-06-19T17:24:16.402Z,99970.24
2023-06-19T17:26:44.825Z,99965.41
2023-06-19T17:29:12.374Z,99968.48
2023-06-19T17:31:40.130Z,99969.72
2023-06-19T17:34:07.650Z,99969.59
2023-06-19T17:36:35.133Z,99968.95
2023-06-19T17:39:03.159Z,99967.95
2023-06-19T17:41:31.408Z,99970.14
2023-06-19T17:44:00.187Z,99970.45
2023-06-19T17:46:27.991Z,99968.31
2023-06-19T17:48:55.802Z,99971.85
2023-06-19T17:51:24.583Z,99967.08
2023-06-19T17:53:52.240Z,99969.22
2023-06-19T17:56:19.931Z,99969.54
2023-06-19T17:58:47.653Z,99971.91
2023-06-19T18:01:15.831Z,99976.05
2023-06-19T18:03:43.485Z,99978.35
2023-06-19T18:06:11.122Z,99980.39
2023-06-19T18:08:38.754Z,99983.45
2023-06-19T18:11:06.623Z,99984.91
2023-06-19T18:13:34.703Z,99984.14
2023-06-19T18:16:12.035Z,99989.65
2023-06-19T18:18:40.286Z,99995.09
2023-06-19T18:21:07.823Z,99996.52
2023-06-19T18:26:56.510Z,99998.23
2023-06-19T18:29:24.178Z,100002.90
2023-06-19T18:31:51.294Z,100012.91
2023-06-19T18:34:18.261Z,100012.59
2023-06-19T18:36:45.051Z,100017.02
2023-06-19T18:39:11.907Z,100017.08
2023-06-19T18:41:38.656Z,100017.60
2023-06-19T18:44:05.568Z,100019.95
2023-06-19T18:46:33.119Z,100018.59
2023-06-19T18:49:00.335Z,100018.43
2023-06-19T18:51:27.215Z,100018.09
2023-06-19T18:53:54.192Z,100020.02
2023-06-19T18:56:21.058Z,100019.23
2023-06-19T18:58:48.269Z,100023.09
2023-06-19T19:01:15.347Z,100021.20
2023-06-19T19:03:42.804Z,100019.85
2023-06-19T19:06:10.356Z,100022.66
2023-06-19T19:08:37.281Z,100025.14
2023-06-19T19:11:05.372Z,100029.75
2023-06-19T19:13:32.815Z,100031.40
2023-06-19T19:15:59.993Z,100031.78
2023-06-19T19:18:27.391Z,100026.09
2023-06-19T19:20:54.316Z,100026.80
2023-06-19T19:23:21.724Z,100029.46
2023-06-19T19:25:48.679Z,100031.25
2023-06-19T19:28:17.353Z,100025.41
2023-06-19T19:30:44.593Z,100024.25
2023-06-19T19:33:11.545Z,100023.67
2023-06-19T19:35:38.768Z,100021.03
2023-06-19T19:38:05.834Z,100027.90
2023-06-19T19:40:32.831Z,100030.58
2023-06-19T19:43:01.000Z,100029.02
2023-06-19T19:45:28.208Z,100031.66
2023-06-19T19:47:55.507Z,100030.02
2023-06-19T19:50:22.794Z,100030.95
2023-06-19T19:52:50.259Z,100028.20
2023-06-19T19:55:17.130Z,100024.88
2023-06-19T19:57:44.008Z,100025.27
2023-06-19T20:00:11.895Z,100024.98
2023-06-19T20:02:39.598Z,100030.58
2023-06-19T20:05:07.110Z,100028.48
2023-06-19T20:07:34.048Z,100030.71
2023-06-19T20:10:01.411Z,100036.72
2023-06-19T20:12:28.416Z,100036.36
2023-06-19T20:14:56.638Z,100035.88
2023-06-19T20:17:23.713Z,100037.69
2023-06-19T20:19:52.708Z,100042.84
2023-06-19T20:22:19.667Z,100039.46
2023-06-19T20:24:46.821Z,100040.39
2023-06-19T20:27:16.424Z,100040.69
2023-06-19T20:29:43.471Z,100043.25
2023-06-19T20:32:10.408Z,100049.73
2023-06-19T20:34:37.684Z,100050.66
2023-06-19T20:37:05.368Z,100051.60
2023-06-19T20:39:34.489Z,100057.39
2023-06-19T20:42:03.091Z,100061.27
2023-06-19T20:44:30.429Z,100065.16
2023-06-19T20:46:59.861Z,100064.36
2023-06-19T20:49:28.597Z,100066.81
2023-06-19T20:51:55.535Z,100067.44
2023-06-19T20:54:22.374Z,100070.15
2023-06-19T20:56:49.697Z,100072.38
2023-06-19T20:59:16.517Z,100074.34
2023-06-19T21:01:44.240Z,100074.23
2023-06-19T21:04:11.265Z,100071.98
2023-06-19T21:06:38.345Z,100071.23
2023-06-19T21:09:06.871Z,100071.94
2023-06-19T21:11:34.500Z,100071.85
2023-06-19T21:14:01.578Z,100071.37
2023-06-19T21:16:28.470Z,100070.20
2023-06-19T21:18:55.549Z,100073.98
2023-06-19T21:21:22.499Z,100074.79
2023-06-19T21:23:49.512Z,100074.80
2023-06-19T21:26:16.667Z,100075.67
2023-06-19T21:28:43.671Z,100072.96
2023-06-19T21:31:10.743Z,100073.33
2023-06-19T21:33:37.843Z,100072.38
2023-06-19T21:36:05.266Z,100073.44
2023-06-19T21:38:33.981Z,100074.30
2023-06-19T21:41:04.177Z,100076.33
2023-06-19T21:43:31.699Z,100074.45
2023-06-19T21:45:59.800Z,100075.48
2023-06-19T21:48:27.726Z,100079.27
2023-06-19T21:50:55.044Z,100080.51
2023-06-19T21:53:22.464Z,100084.02
2023-06-19T21:55:49.515Z,100089.52
2023-06-19T21:58:16.554Z,100087.55
2023-06-19T22:00:43.431Z,100083.23
2023-06-19T22:03:10.543Z,100082.02
2023-06-19T22:05:37.690Z,100090.23
2023-06-19T22:08:04.820Z,100088.84
2023-06-19T22:10:32.629Z,100083.93
2023-06-19T22:12:59.494Z,100077.89
2023-06-19T22:15:26.321Z,100076.15
2023-06-19T22:17:53.238Z,100074.63
2023-06-19T22:20:20.777Z,100075.17
2023-06-19T22:22:48.121Z,100070.42
2023-06-19T22:25:15.189Z,100066.59
2023-06-19T22:27:44.647Z,100064.58
2023-06-19T22:30:12.145Z,100065.85
2023-06-19T22:32:39.146Z,100062.23
2023-06-19T22:35:06.627Z,100056.25
2023-06-19T22:37:34.715Z,100053.25
2023-06-19T22:40:01.566Z,100051.73
2023-06-19T22:42:28.833Z,100056.88
2023-06-19T22:44:55.763Z,100057.60
2023-06-19T22:47:23.098Z,100055.05
2023-06-19T22:49:50.231Z,100054.23
2023-06-19T22:52:18.131Z,100061.14
2023-06-19T22:54:45.186Z,100060.59
2023-06-19T22:57:12.203Z,100064.52
2023-06-19T22:59:39.364Z,100063.08
2023-06-19T23:02:06.235Z,100065.15
2023-06-19T23:04:33.057Z,100067.62
2023-06-19T23:07:02.240Z,100068.65
2023-06-19T23:09:30.724Z,100070.50
2023-06-19T23:11:57.868Z,100073.30
2023-06-19T23:14:25.019Z,100070.38
2023-06-19T23:16:51.920Z,100074.20
2023-06-19T23:19:19.108Z,100075.34
2023-06-19T23:21:46.104Z,100073.00
2023-06-19T23:24:13.126Z,100073.63
2023-06-19T23:26:40.073Z,100077.55
2023-06-19T23:29:07.771Z,100076.42
2023-06-19T23:31:35.038Z,100078.20
2023-06-19T23:34:02.997Z,100075.15
2023-06-19T23:36:30.553Z,100073.85
2023-06-19T23:38:57.614Z,100074.93
2023-06-19T23:41:24.607Z,100075.02
2023-06-19T23:43:51.951Z,100075.84
2023-06-19T23:46:19.225Z,100076.19
2023-06-19T23:48:46.440Z,100072.20
2023-06-19T23:51:13.772Z,100073.15
2023-06-19T23:53:40.664Z,100071.48
2023-06-19T23:56:07.362Z,100073.33
2023-06-19T23:58:35.024Z,100077.00
